Time,TemperatureF,DewpointF,PressureIn,WindDirection,WindDirectionDegrees,WindSpeedMPH,WindSpeedGustMPH,Humidity,HourlyPrecipIn,Conditions,Clouds,dailyrainin,SoftwareType,DateUTC
2013-07-04 00:07:00,71.6,71.0,30.16,SSW,193,0.0,-999.0,98,-99.99,,,0.00,weatherlink.com 1.10,2013-07-04 04:07:00,
2013-07-04 00:22:00,71.7,71.0,30.15,SSW,193,0.0,-999.0,98,-99.99,,,0.00,weatherlink.com 1.10,2013-07-04 04:22:00,
2013-07-04 00:37:00,71.3,71.0,30.15,SSW,193,0.0,-999.0,99,-99.99,,,0.00,weatherlink.com 1.10,2013-07-04 04:37:00,
2013-07-04 00:52:00,71.7,71.0,30.15,ESE,123,0.0,-999.0,99,-99.99,,,0.01,weatherlink.com 1.10,2013-07-04 04:52:00,
2013-07-04 01:07:00,72.0,72.0,30.15,West,269,0.0,-999.0,99,-99.99,,,0.01,weatherlink.com 1.10,2013-07-04 05:07:00,
2013-07-04 01:22:00,71.2,71.0,30.16,NW,304,0.0,-999.0,98,-99.99,,,0.02,weatherlink.com 1.10,2013-07-04 05:22:00,
2013-07-04 01:37:00,70.1,70.0,30.16,NW,315,0.0,-999.0,98,-99.99,,,0.03,weatherlink.com 1.10,2013-07-04 05:37:00,
2013-07-04 01:52:00,69.9,70.0,30.16,NW,315,0.0,-999.0,99,-99.99,,,0.03,weatherlink.com 1.10,2013-07-04 05:52:00,
2013-07-04 02:07:00,69.7,69.0,30.15,NW,315,0.0,-999.0,98,-99.99,,,0.04,weatherlink.com 1.10,2013-07-04 06:07:00,
2013-07-04 02:22:00,69.4,69.0,30.14,NW,315,0.0,-999.0,99,-99.99,,,0.04,weatherlink.com 1.10,2013-07-04 06:22:00,
2013-07-04 02:37:00,69.3,69.0,30.14,NW,315,0.0,-999.0,99,-99.99,,,0.04,weatherlink.com 1.10,2013-07-04 06:37:00,
2013-07-04 02:52:00,69.4,69.0,30.14,NW,315,0.0,-999.0,99,-99.99,,,0.04,weatherlink.com 1.10,2013-07-04 06:52:00,
2013-07-04 03:07:00,68.4,68.0,30.14,NW,315,0.0,-999.0,98,-99.99,,,0.04,weatherlink.com 1.10,2013-07-04 07:07:00,
2013-07-04 03:22:00,68.0,68.0,30.15,NW,315,0.0,-999.0,99,-99.99,,,0.04,weatherlink.com 1.10,2013-07-04 07:22:00,
2013-07-04 03:37:00,68.0,68.0,30.15,NW,315,0.0,-999.0,99,-99.99,,,0.04,weatherlink.com 1.10,2013-07-04 07:37:00,
2013-07-04 03:52:00,67.4,67.0,30.14,NW,315,0.0,-999.0,99,-99.99,,,0.04,weatherlink.com 1.10,2013-07-04 07:52:00,
2013-07-04 04:07:00,67.2,67.0,30.14,NW,315,0.0,-999.0,99,-99.99,,,0.04,weatherlink.com 1.10,2013-07-04 08:07:00,
2013-07-04 04:22:00,67.1,67.0,30.14,NW,315,0.0,-999.0,100,-99.99,,,0.04,weatherlink.com 1.10,2013-07-04 08:22:00,
2013-07-04 04:37:00,67.4,67.0,30.14,NW,315,0.0,-999.0,100,-99.99,,,0.04,weatherlink.com 1.10,2013-07-04 08:37:00,
2013-07-04 04:52:00,67.5,68.0,30.14,NW,315,0.0,-999.0,100,-99.99,,,0.04,weatherlink.com 1.10,2013-07-04 08:52:00,
2013-07-04 05:07:00,67.6,68.0,30.15,NW,315,0.0,-999.0,100,-99.99,,,0.04,weatherlink.com 1.10,2013-07-04 09:07:00,
2013-07-04 05:22:00,67.4,67.0,30.15,NW,315,0.0,-999.0,100,-99.99,,,0.04,weatherlink.com 1.10,2013-07-04 09:22:00,
2013-07-04 05:37:00,68.1,68.0,30.15,NW,315,0.0,-999.0,100,-99.99,,,0.04,weatherlink.com 1.10,2013-07-04 09:37:00,
2013-07-04 05:52:00,68.2,68.0,30.16,NW,315,0.0,-999.0,100,-99.99,,,0.04,weatherlink.com 1.10,2013-07-04 09:52:00,
2013-07-04 06:07:00,68.1,68.0,30.16,NW,315,0.0,-999.0,100,-99.99,,,0.04,weatherlink.com 1.10,2013-07-04 10:07:00,
2013-07-04 06:22:00,68.2,68.0,30.15,NW,315,0.0,-999.0,100,-99.99,,,0.04,weatherlink.com 1.10,2013-07-04 10:22:00,
2013-07-04 06:37:00,68.7,69.0,30.15,NW,315,0.0,-999.0,100,-99.99,,,0.04,weatherlink.com 1.10,2013-07-04 10:37:00,
2013-07-04 06:52:00,69.4,69.0,30.16,NW,315,0.0,-999.0,100,-99.99,,,0.04,weatherlink.com 1.10,2013-07-04 10:52:00,
2013-07-04 07:07:00,70.0,70.0,30.16,NW,315,0.0,-999.0,100,-99.99,,,0.04,weatherlink.com 1.10,2013-07-04 11:07:00,
2013-07-04 07:22:00,70.4,70.0,30.16,NW,315,0.0,-999.0,100,-99.99,,,0.04,weatherlink.com 1.10,2013-07-04 11:22:00,
2013-07-04 07:37:00,70.7,71.0,30.17,NW,315,0.0,-999.0,100,-99.99,,,0.04,weatherlink.com 1.10,2013-07-04 11:37:00,
2013-07-04 07:52:00,71.1,71.0,30.18,SSW,192,0.0,-999.0,100,-99.99,,,0.04,weatherlink.com 1.10,2013-07-04 11:52:00,
2013-07-04 08:07:00,71.4,71.0,30.18,SSW,192,0.0,-999.0,100,-99.99,,,0.04,weatherlink.com 1.10,2013-07-04 12:07:00,
2013-07-04 08:22:00,71.6,72.0,30.19,SSW,198,0.0,-999.0,100,-99.99,,,0.04,weatherlink.com 1.10,2013-07-04 12:22:00,
2013-07-04 08:37:00,71.7,72.0,30.19,WSW,250,0.0,-999.0,100,-99.99,,,0.04,weatherlink.com 1.10,2013-07-04 12:37:00,
2013-07-04 08:53:00,72.3,72.0,30.20,WSW,241,0.0,-999.0,99,-99.99,,,0.04,weatherlink.com 1.10,2013-07-04 12:53:00,
2013-07-04 09:07:00,72.4,72.0,30.20,West,268,0.0,-999.0,98,-99.99,,,0.04,weatherlink.com 1.10,2013-07-04 13:07:00,
2013-07-04 09:23:00,72.4,72.0,30.20,SW,225,3.0,-999.0,97,-99.99,,,0.04,weatherlink.com 1.10,2013-07-04 13:23:00,
2013-07-04 09:38:00,72.1,71.0,30.21,WSW,252,3.0,-999.0,97,-99.99,,,0.04,weatherlink.com 1.10,2013-07-04 13:38:00,
2013-07-04 09:53:00,71.8,71.0,30.20,SW,228,3.0,-999.0,97,-99.99,,,0.05,weatherlink.com 1.10,2013-07-04 13:53:00,
2013-07-04 10:08:00,71.9,71.0,30.20,South,191,2.0,-999.0,97,-99.99,,,0.05,weatherlink.com 1.10,2013-07-04 14:08:00,
2013-07-04 10:23:00,71.9,71.0,30.20,SSW,197,0.0,-999.0,98,-99.99,,,0.05,weatherlink.com 1.10,2013-07-04 14:23:00,
2013-07-04 10:38:00,71.9,71.0,30.19,SSW,197,0.0,-999.0,98,-99.99,,,0.06,weatherlink.com 1.10,2013-07-04 14:38:00,
2013-07-04 10:53:00,72.4,72.0,30.18,SSW,198,0.0,-999.0,98,-99.99,,,0.06,weatherlink.com 1.10,2013-07-04 14:53:00,
2013-07-04 11:08:00,73.4,72.0,30.18,SSW,212,0.0,-999.0,96,-99.99,,,0.06,weatherlink.com 1.10,2013-07-04 15:08:00,
2013-07-04 11:23:00,73.7,72.0,30.19,South,181,0.0,-999.0,95,-99.99,,,0.06,weatherlink.com 1.10,2013-07-04 15:23:00,
2013-07-04 11:38:00,73.5,72.0,30.19,SE,128,0.0,-999.0,95,-99.99,,,0.06,weatherlink.com 1.10,2013-07-04 15:38:00,
2013-07-04 11:53:00,73.6,72.0,30.18,ESE,114,2.0,-999.0,96,-99.99,,,0.08,weatherlink.com 1.10,2013-07-04 15:53:00,
2013-07-04 12:08:00,74.0,73.0,30.18,ESE,116,2.0,-999.0,95,-99.99,,,0.08,weatherlink.com 1.10,2013-07-04 16:08:00,
2013-07-04 12:23:00,74.7,73.0,30.17,ESE,119,1.0,-999.0,94,-99.99,,,0.08,weatherlink.com 1.10,2013-07-04 16:23:00,
2013-07-04 12:38:00,75.2,73.0,30.17,ESE,107,2.0,-999.0,92,-99.99,,,0.08,weatherlink.com 1.10,2013-07-04 16:38:00,
2013-07-04 12:53:00,76.2,73.0,30.17,SE,138,5.0,-999.0,90,-99.99,,,0.08,weatherlink.com 1.10,2013-07-04 16:53:00,
2013-07-04 13:08:00,77.1,73.0,30.17,SW,232,2.0,-999.0,87,-99.99,,,0.08,weatherlink.com 1.10,2013-07-04 17:08:00,
2013-07-04 13:23:00,77.9,74.0,30.17,WSW,241,3.0,-999.0,88,-99.99,,,0.08,weatherlink.com 1.10,2013-07-04 17:23:00,
2013-07-04 13:38:00,78.9,74.0,30.17,SSW,207,0.0,-999.0,86,-99.99,,,0.08,weatherlink.com 1.10,2013-07-04 17:38:00,
2013-07-04 13:53:00,79.6,74.0,30.16,West,277,0.0,-999.0,84,-99.99,,,0.08,weatherlink.com 1.10,2013-07-04 17:53:00,
2013-07-04 14:08:00,79.8,74.0,30.16,SW,231,2.0,-999.0,81,-99.99,,,0.08,weatherlink.com 1.10,2013-07-04 18:08:00,
2013-07-04 14:23:00,79.8,74.0,30.16,WSW,246,3.0,-999.0,82,-99.99,,,0.08,weatherlink.com 1.10,2013-07-04 18:23:00,
2013-07-04 14:38:00,80.9,74.0,30.16,SSW,200,0.0,-999.0,79,-99.99,,,0.08,weatherlink.com 1.10,2013-07-04 18:38:00,
2013-07-04 14:53:00,80.2,73.0,30.15,SSW,212,6.0,-999.0,79,-99.99,,,0.08,weatherlink.com 1.10,2013-07-04 18:53:00,
2013-07-04 15:08:00,81.5,73.0,30.15,West,271,5.0,-999.0,74,-99.99,,,0.08,weatherlink.com 1.10,2013-07-04 19:08:00,
2013-07-04 15:23:00,81.6,72.0,30.15,SSW,196,1.0,-999.0,72,-99.99,,,0.08,weatherlink.com 1.10,2013-07-04 19:23:00,
2013-07-04 15:38:00,82.3,73.0,30.15,South,182,2.0,-999.0,73,-99.99,,,0.08,weatherlink.com 1.10,2013-07-04 19:38:00,
2013-07-04 15:53:00,81.8,72.0,30.14,SSW,194,7.0,-999.0,73,-99.99,,,0.08,weatherlink.com 1.10,2013-07-04 19:53:00,
2013-07-04 16:08:00,82.2,72.0,30.14,West,280,7.0,-999.0,70,-99.99,,,0.08,weatherlink.com 1.10,2013-07-04 20:08:00,
2013-07-04 16:23:00,81.9,72.0,30.14,SSW,197,3.0,-999.0,72,-99.99,,,0.08,weatherlink.com 1.10,2013-07-04 20:23:00,
2013-07-04 16:38:00,81.5,73.0,30.14,West,266,5.0,-999.0,74,-99.99,,,0.08,weatherlink.com 1.10,2013-07-04 20:38:00,
2013-07-04 16:53:00,81.1,73.0,30.14,SSW,209,0.0,-999.0,76,-99.99,,,0.08,weatherlink.com 1.10,2013-07-04 20:53:00,
2013-07-04 17:08:00,82.0,72.0,30.13,SW,227,5.0,-999.0,72,-99.99,,,0.08,weatherlink.com 1.10,2013-07-04 21:08:00,
2013-07-04 17:23:00,82.4,72.0,30.13,WNW,286,4.0,-999.0,70,-99.99,,,0.08,weatherlink.com 1.10,2013-07-04 21:23:00,
2013-07-04 17:38:00,81.7,71.0,30.13,West,267,6.0,-999.0,70,-99.99,,,0.08,weatherlink.com 1.10,2013-07-04 21:38:00,